createdAt,value
2019-05-19T03:36:28.568Z,3211
2019-05-19T03:46:09.045Z,6758
2019-05-19T03:51:08.907Z,6758
2019-05-19T03:56:09.006Z,8205
2019-05-19T04:01:09.339Z,10108
2019-05-19T04:06:09.445Z,11357
2019-05-19T04:11:09.544Z,11822
2019-05-19T04:16:09.657Z,15488
2019-05-19T04:31:10.017Z,18546
2019-05-19T04:46:10.294Z,15889
2019-05-19T05:01:10.648Z,18703
2019-05-19T05:06:10.759Z,19540
2019-05-19T05:11:10.876Z,20436
2019-05-19T05:26:11.237Z,19062
2019-05-19T05:41:11.590Z,19793
2019-05-19T05:51:11.747Z,22580
2019-05-19T05:56:01.915Z,23682
2019-05-19T06:01:02.059Z,23229
2019-05-19T06:06:12.209Z,22061
2019-05-19T06:11:02.329Z,21603
2019-05-19T06:16:12.411Z,21998
2019-05-19T06:21:02.496Z,22961
2019-05-19T06:26:02.668Z,23515
2019-05-19T06:31:02.763Z,23568
2019-05-19T06:36:12.842Z,24205
2019-05-19T06:41:02.910Z,24994
2019-05-19T06:46:02.977Z,26234
2019-05-19T06:51:03.069Z,27666
2019-05-19T06:56:03.197Z,28130
2019-05-19T07:01:03.285Z,27258
2019-05-19T07:06:03.334Z,26716
2019-05-19T07:11:03.424Z,27348
2019-05-19T07:21:03.795Z,29452
2019-05-19T07:26:03.862Z,29450
2019-05-19T07:41:14.357Z,25803
2019-05-19T07:46:04.497Z,26637
2019-05-19T07:51:04.714Z,27105
2019-05-19T08:06:05.080Z,26407
2019-05-19T09:21:07.203Z,24008
2019-05-19T09:55:47.914Z,27274
2019-05-19T10:10:48.193Z,28727
2019-05-19T10:15:38.278Z,28727
2019-05-19T10:20:38.381Z,29483
2019-05-19T10:45:38.891Z,29907
2019-05-19T11:15:49.623Z,29473
2019-05-19T11:25:51.646Z,31257
2019-05-19T12:00:50.720Z,32912
2019-05-19T12:05:50.852Z,33192
2019-05-19T12:10:50.895Z,33545
2019-05-19T12:15:41.011Z,33618
2019-05-19T12:20:51.172Z,33254
2019-05-19T12:25:51.253Z,32471
2019-05-19T12:30:51.383Z,31958
2019-05-19T12:35:51.668Z,31719
2019-05-19T12:40:51.717Z,31938
2019-05-19T12:45:51.802Z,31959
2019-05-19T12:50:51.892Z,31982
2019-05-19T12:55:52.031Z,31118
2019-05-19T13:00:52.097Z,31255
2019-05-19T13:05:52.147Z,31482
2019-05-19T13:10:52.279Z,31657
2019-05-19T13:20:52.506Z,32115
2019-05-19T13:25:52.624Z,32228
2019-05-19T13:30:52.749Z,32225
2019-05-19T13:35:52.842Z,31945
2019-05-19T13:45:53.043Z,31068
2019-05-19T13:50:53.190Z,31057
2019-05-19T13:55:53.266Z,31634
2019-05-19T14:00:53.397Z,32152
2019-05-19T14:05:53.513Z,32181
2019-05-19T14:10:53.570Z,31662
2019-05-19T14:15:53.724Z,31123
2019-05-19T14:20:53.863Z,31053
2019-05-19T14:30:54.064Z,31190
2019-05-19T14:40:44.328Z,30527
2019-05-19T14:45:54.415Z,30261
2019-05-19T14:50:44.489Z,30034
2019-05-19T14:55:44.614Z,29744
2019-05-19T15:00:44.663Z,29739
2019-05-19T15:15:44.860Z,30436
2019-05-19T15:20:44.933Z,30909
2019-05-19T15:25:44.991Z,31117
2019-05-19T15:35:45.202Z,31171
2019-05-19T15:40:45.320Z,31304
2019-05-19T15:45:45.382Z,31217
2019-05-19T16:00:45.727Z,27281
2019-05-19T16:05:45.854Z,26748
2019-05-19T16:10:46.048Z,26077
2019-05-19T16:15:46.120Z,25719
2019-05-19T16:20:46.188Z,26098
2019-05-19T16:25:46.258Z,26109
2019-05-19T16:30:46.395Z,25491
2019-05-19T16:35:46.411Z,25262
2019-05-19T16:40:46.489Z,24446
2019-05-19T16:50:26.735Z,23713
2019-05-19T16:55:26.824Z,23962
2019-05-19T17:00:26.965Z,24205
2019-05-19T17:05:27.068Z,24693
2019-05-19T17:10:27.140Z,23650
2019-05-19T17:38:27.621Z,15925
2019-05-19T18:03:28.165Z,14350
2019-05-19T18:13:28.362Z,14097
2019-05-19T18:23:28.622Z,13000
2019-05-19T18:28:28.798Z,12327
2019-05-19T18:33:28.873Z,11629
2019-05-19T18:38:18.997Z,10466
2019-05-19T18:43:29.136Z,8619
2019-05-19T18:48:29.251Z,6551
2019-05-19T18:53:29.406Z,4040
2019-05-19T18:58:29.461Z,1215
